Ryoei Maru — JL6703 — position and weather

sailwx.info

Track history (hours):
 
Tides and Currents Weather Stations Pressure Air Temp Water Temp Dewpoint Dewpoint Depression Visibility Wind Speed Wind Dir Waves Ship Positions

Ryoei Maru

Last reported at 2015-Aug-31 16:33 UTC. Time now 2015-Aug-31 19:54 UTC.
Position N 33°56' E 134°59'.

Length 95 m; draft 5 m.

Type: Cargo ship. MMSI: 431501749.

Date/timePositionNaut miles runAvg speedWind from/ knotsBaromVisibWave heightAir tempDewpointWater temp
2015-Aug-31 16:33N 33°56' E 134°59'1514.6
2015-Aug-31 15:33N 34°11' E 134°59'1313.3
2015-Aug-31 14:33N 34°24' E 135°02'1514.7
2015-Aug-31 13:34N 34°34' E 135°15'9 8.7
2015-Aug-31 12:29N 34°37' E 135°26'0 0.0
2015-Aug-31 11:11N 34°37' E 135°26'0 0.0
2015-Aug-31 08:05N 34°37' E 135°26'0 0.1
2015-Aug-31 07:29N 34°37' E 135°26'11 0.7
2015-Aug-30 17:11N 34°32' E 135°14'2011.4
2015-Aug-30 15:25N 34°16' E 134°59'1113.2
2015-Aug-30 14:33N 34°04' E 135°01'17910.3
2015-Aug-29 21:12N 34°32' E 138°35'5414.2
2015-Aug-29 17:23N 34°43' E 139°40'1614.3
2015-Aug-29 16:17N 34°51' E 139°56'1014.0
2015-Aug-29 15:32N 34°57' E 140°07'2512.6
2015-Aug-29 13:32N 35°12' E 140°31'  
2015-Aug-25 16:33N 35°36' E 140°55'1313.0
2015-Aug-25 15:33N 35°25' E 140°45'1513.2
2015-Aug-25 14:26N 35°14' E 140°34'1313.5
2015-Aug-25 13:28N 35°04' E 140°23'1112.3
2015-Aug-25 12:33N 34°58' E 140°11'1211.4
2015-Aug-25 11:27N 34°53' E 139°58'8 8.7
2015-Aug-25 10:30N 34°52' E 139°48'1212.5
2015-Aug-25 09:33N 35°03' E 139°44'1413.6
2015-Aug-25 08:33N 35°17' E 139°45'1111.2
2015-Aug-25 07:33N 35°28' E 139°49'7 6.6
2015-Aug-25 06:33N 35°34' E 139°52'0 0.0
2015-Aug-25 05:30N 35°34' E 139°52'0 0.0
2015-Aug-25 04:33N 35°34' E 139°52'0 0.0
2015-Aug-25 03:33N 35°34' E 139°52'0 0.0
2015-Aug-25 02:33N 35°34' E 139°52'0 0.0
2015-Aug-25 01:33N 35°34' E 139°52'0 0.0
2015-Aug-25 00:33N 35°34' E 139°52'0 0.0
2015-Aug-24 23:33N 35°34' E 139°52'0 0.0
2015-Aug-24 22:33N 35°34' E 139°52'0 0.0
2015-Aug-24 21:33N 35°34' E 139°52'0 0.0
2015-Aug-24 20:33N 35°34' E 139°52'0 0.0
2015-Aug-24 19:33N 35°34' E 139°52'0 0.0
2015-Aug-24 18:33N 35°34' E 139°52'0 0.0
2015-Aug-24 17:33N 35°34' E 139°52'0 0.0
2015-Aug-24 16:33N 35°34' E 139°52'0 0.0
2015-Aug-24 15:33N 35°34' E 139°52'0 0.1
2015-Aug-24 14:33N 35°34' E 139°52'0 0.0
2015-Aug-24 13:33N 35°34' E 139°52'0 0.0
2015-Aug-24 12:33N 35°34' E 139°52'0 0.0
2015-Aug-24 11:33N 35°34' E 139°52'0 0.0
2015-Aug-24 10:27N 35°34' E 139°52'0 0.1
2015-Aug-24 09:33N 35°34' E 139°52'0 0.0
2015-Aug-24 08:33N 35°34' E 139°52'0 0.0
2015-Aug-24 07:33N 35°34' E 139°52'0 0.0
2015-Aug-24 06:33N 35°34' E 139°52'0 0.0
2015-Aug-24 05:30N 35°34' E 139°52'0 0.0
2015-Aug-24 04:30N 35°34' E 139°52'0 0.0
2015-Aug-24 03:30N 35°34' E 139°52'0 0.0
2015-Aug-24 02:33N 35°34' E 139°52'0 0.0
2015-Aug-24 01:30N 35°34' E 139°52'0 0.0
2015-Aug-24 00:30N 35°34' E 139°52'0 0.0
2015-Aug-23 23:33N 35°34' E 139°52'0 0.0
2015-Aug-23 22:33N 35°34' E 139°52'0 0.0
2015-Aug-23 21:33N 35°34' E 139°52'0 0.0
2015-Aug-23 20:33N 35°34' E 139°52'0 0.0
2015-Aug-23 19:33N 35°34' E 139°52'0 0.0
2015-Aug-23 18:33N 35°34' E 139°52'0 0.0
2015-Aug-23 17:33N 35°34' E 139°52'0 0.0
2015-Aug-23 16:33N 35°34' E 139°52'0 0.0
2015-Aug-23 15:33N 35°34' E 139°52'0 0.0
2015-Aug-23 14:30N 35°34' E 139°52'0 0.1
2015-Aug-23 13:33N 35°34' E 139°52'0 0.3
2015-Aug-23 12:33N 35°34' E 139°52'1111.3
2015-Aug-23 11:34N 35°24' E 139°46'1211.6
2015-Aug-23 10:34N 35°12' E 139°47'1212.0
2015-Aug-23 09:34N 35°02' E 139°39'23911.2
2015-Aug-22 12:11N 33°58' E 134°59'914.6
2015-Aug-22 11:33N 34°07' E 134°58'1515.0
2015-Aug-22 10:33N 34°22' E 134°60'1414.4
2015-Aug-22 09:33N 34°31' E 135°13'1211.9
2015-Aug-22 08:34N 34°37' E 135°26'0 0.0
2015-Aug-21 22:29N 34°37' E 135°26'6 6.4
2015-Aug-21 21:33N 34°35' E 135°19'0 0.3
2015-Aug-21 20:29N 34°35' E 135°18'0 0.0
2015-Aug-21 19:29N 34°35' E 135°18'0 0.0
2015-Aug-21 18:29N 34°35' E 135°18'0 0.0
2015-Aug-21 17:29N 34°35' E 135°18'  
Track history (hours):
 
Tides and Currents Weather Stations Pressure Air Temp Water Temp Dewpoint Dewpoint Depression Visibility Wind Speed Wind Dir Waves Ship Positions

Ryoei Maru

Last reported at 2015-Aug-31 16:33 UTC. Time now 2015-Aug-31 19:54 UTC.
Position N 33°56' E 134°59'.

Length 95 m; draft 5 m.

Type: Cargo ship. MMSI: 431501749.

Date/timePositionNaut miles runAvg speedWind from/ knotsBaromVisibWave heightAir tempDewpointWater temp
2015-Aug-31 16:33N 33°56' E 134°59'1514.6
2015-Aug-31 15:33N 34°11' E 134°59'1313.3
2015-Aug-31 14:33N 34°24' E 135°02'1514.7
2015-Aug-31 13:34N 34°34' E 135°15'9 8.7
2015-Aug-31 12:29N 34°37' E 135°26'0 0.0
2015-Aug-31 11:11N 34°37' E 135°26'0 0.0
2015-Aug-31 08:05N 34°37' E 135°26'0 0.1
2015-Aug-31 07:29N 34°37' E 135°26'11 0.7
2015-Aug-30 17:11N 34°32' E 135°14'2011.4
2015-Aug-30 15:25N 34°16' E 134°59'1113.2
2015-Aug-30 14:33N 34°04' E 135°01'17910.3
2015-Aug-29 21:12N 34°32' E 138°35'5414.2
2015-Aug-29 17:23N 34°43' E 139°40'1614.3
2015-Aug-29 16:17N 34°51' E 139°56'1014.0
2015-Aug-29 15:32N 34°57' E 140°07'2512.6
2015-Aug-29 13:32N 35°12' E 140°31'  
2015-Aug-25 16:33N 35°36' E 140°55'1313.0
2015-Aug-25 15:33N 35°25' E 140°45'1513.2
2015-Aug-25 14:26N 35°14' E 140°34'1313.5
2015-Aug-25 13:28N 35°04' E 140°23'1112.3
2015-Aug-25 12:33N 34°58' E 140°11'1211.4
2015-Aug-25 11:27N 34°53' E 139°58'8 8.7
2015-Aug-25 10:30N 34°52' E 139°48'1212.5
2015-Aug-25 09:33N 35°03' E 139°44'1413.6
2015-Aug-25 08:33N 35°17' E 139°45'1111.2
2015-Aug-25 07:33N 35°28' E 139°49'7 6.6
2015-Aug-25 06:33N 35°34' E 139°52'0 0.0
2015-Aug-25 05:30N 35°34' E 139°52'0 0.0
2015-Aug-25 04:33N 35°34' E 139°52'0 0.0
2015-Aug-25 03:33N 35°34' E 139°52'0 0.0
2015-Aug-25 02:33N 35°34' E 139°52'0 0.0
2015-Aug-25 01:33N 35°34' E 139°52'0 0.0
2015-Aug-25 00:33N 35°34' E 139°52'0 0.0
2015-Aug-24 23:33N 35°34' E 139°52'0 0.0
2015-Aug-24 22:33N 35°34' E 139°52'0 0.0
2015-Aug-24 21:33N 35°34' E 139°52'0 0.0
2015-Aug-24 20:33N 35°34' E 139°52'0 0.0
2015-Aug-24 19:33N 35°34' E 139°52'0 0.0
2015-Aug-24 18:33N 35°34' E 139°52'0 0.0
2015-Aug-24 17:33N 35°34' E 139°52'0 0.0
2015-Aug-24 16:33N 35°34' E 139°52'0 0.0
2015-Aug-24 15:33N 35°34' E 139°52'0 0.1
2015-Aug-24 14:33N 35°34' E 139°52'0 0.0
2015-Aug-24 13:33N 35°34' E 139°52'0 0.0
2015-Aug-24 12:33N 35°34' E 139°52'0 0.0
2015-Aug-24 11:33N 35°34' E 139°52'0 0.0
2015-Aug-24 10:27N 35°34' E 139°52'0 0.1
2015-Aug-24 09:33N 35°34' E 139°52'0 0.0
2015-Aug-24 08:33N 35°34' E 139°52'0 0.0
2015-Aug-24 07:33N 35°34' E 139°52'0 0.0
2015-Aug-24 06:33N 35°34' E 139°52'0 0.0
2015-Aug-24 05:30N 35°34' E 139°52'0 0.0
2015-Aug-24 04:30N 35°34' E 139°52'0 0.0
2015-Aug-24 03:30N 35°34' E 139°52'0 0.0
2015-Aug-24 02:33N 35°34' E 139°52'0 0.0
2015-Aug-24 01:30N 35°34' E 139°52'0 0.0
2015-Aug-24 00:30N 35°34' E 139°52'0 0.0
2015-Aug-23 23:33N 35°34' E 139°52'0 0.0
2015-Aug-23 22:33N 35°34' E 139°52'0 0.0
2015-Aug-23 21:33N 35°34' E 139°52'0 0.0
2015-Aug-23 20:33N 35°34' E 139°52'0 0.0
2015-Aug-23 19:33N 35°34' E 139°52'0 0.0
2015-Aug-23 18:33N 35°34' E 139°52'0 0.0
2015-Aug-23 17:33N 35°34' E 139°52'0 0.0
2015-Aug-23 16:33N 35°34' E 139°52'0 0.0
2015-Aug-23 15:33N 35°34' E 139°52'0 0.0
2015-Aug-23 14:30N 35°34' E 139°52'0 0.1
2015-Aug-23 13:33N 35°34' E 139°52'0 0.3
2015-Aug-23 12:33N 35°34' E 139°52'1111.3
2015-Aug-23 11:34N 35°24' E 139°46'1211.6
2015-Aug-23 10:34N 35°12' E 139°47'1212.0
2015-Aug-23 09:34N 35°02' E 139°39'23911.2
2015-Aug-22 12:11N 33°58' E 134°59'914.6
2015-Aug-22 11:33N 34°07' E 134°58'1515.0
2015-Aug-22 10:33N 34°22' E 134°60'1414.4
2015-Aug-22 09:33N 34°31' E 135°13'1211.9
2015-Aug-22 08:34N 34°37' E 135°26'0 0.0
2015-Aug-21 22:29N 34°37' E 135°26'6 6.4
2015-Aug-21 21:33N 34°35' E 135°19'0 0.3
2015-Aug-21 20:29N 34°35' E 135°18'0 0.0
2015-Aug-21 19:29N 34°35' E 135°18'0 0.0
2015-Aug-21 18:29N 34°35' E 135°18'0 0.0
2015-Aug-21 17:29N 34°35' E 135°18'  

Dump ship's entire track history